createdAt,value
2018-12-23T00:02:21.012Z,66.92
2018-12-23T00:04:56.127Z,67.41
2018-12-23T00:07:31.404Z,67.00
2018-12-23T00:10:06.943Z,67.31
2018-12-23T00:12:41.912Z,67.67
2018-12-23T00:15:18.068Z,68.24
2018-12-23T00:17:53.137Z,68.44
2018-12-23T00:20:28.645Z,68.93
2018-12-23T00:23:04.041Z,68.79
2018-12-23T00:28:26.546Z,69.35
2018-12-23T00:31:02.149Z,69.55
2018-12-23T00:33:37.343Z,70.32
2018-12-23T00:36:12.351Z,70.54
2018-12-23T00:38:47.576Z,70.67
2018-12-23T00:41:23.874Z,70.67
2018-12-23T00:43:59.156Z,71.66
2018-12-23T00:46:34.300Z,71.71
2018-12-23T00:49:09.445Z,71.68
2018-12-23T00:51:44.588Z,71.16
2018-12-23T00:54:19.772Z,71.42
2018-12-23T00:56:54.889Z,71.15
2018-12-23T00:59:29.976Z,71.00
2018-12-23T01:02:05.635Z,71.12
2018-12-23T01:04:41.430Z,70.93
2018-12-23T01:07:16.662Z,70.75
2018-12-23T01:09:52.772Z,71.01
2018-12-23T01:12:29.678Z,70.90
2018-12-23T01:15:05.608Z,70.79
2018-12-23T01:17:40.934Z,70.43
2018-12-23T01:20:17.081Z,70.89
2018-12-23T01:22:52.122Z,70.54
2018-12-23T01:25:27.260Z,70.32
2018-12-23T01:28:02.492Z,70.72
2018-12-23T01:30:37.726Z,70.29
2018-12-23T01:33:12.906Z,69.98
2018-12-23T01:35:48.064Z,69.46
2018-12-23T01:38:23.165Z,69.43
2018-12-23T01:40:58.529Z,69.22
2018-12-23T01:43:33.840Z,68.76
2018-12-23T01:46:09.056Z,68.95
2018-12-23T01:48:44.113Z,67.88
2018-12-23T01:51:19.323Z,67.96
2018-12-23T01:53:54.689Z,68.52
2018-12-23T01:56:30.021Z,68.54
2018-12-23T01:59:05.119Z,68.22
2018-12-23T02:01:40.382Z,68.39
2018-12-23T02:04:15.586Z,68.88
2018-12-23T02:06:50.768Z,69.08
2018-12-23T02:09:25.804Z,68.93
2018-12-23T02:12:00.774Z,68.62
2018-12-23T02:14:35.969Z,68.75
2018-12-23T02:17:11.313Z,68.65
2018-12-23T02:19:46.569Z,68.69
2018-12-23T02:22:22.057Z,68.50
2018-12-23T02:24:57.140Z,68.35
2018-12-23T02:27:32.612Z,68.50
2018-12-23T02:30:08.749Z,68.71
2018-12-23T02:32:43.877Z,68.69
2018-12-23T02:35:18.897Z,68.09
2018-12-23T02:37:54.024Z,68.20
2018-12-23T02:40:29.290Z,68.62
2018-12-23T02:43:04.331Z,68.29
2018-12-23T02:45:40.083Z,68.42
2018-12-23T02:48:15.177Z,68.43
2018-12-23T02:50:50.344Z,68.05
2018-12-23T02:53:25.580Z,68.03
2018-12-23T02:56:01.210Z,68.45
2018-12-23T02:58:36.334Z,68.38
2018-12-23T03:01:11.697Z,68.57
2018-12-23T03:03:46.910Z,68.41
2018-12-23T03:06:22.055Z,68.12
2018-12-23T03:08:57.076Z,68.07
2018-12-23T03:11:32.182Z,67.75
2018-12-23T03:14:07.445Z,68.22
2018-12-23T03:16:42.720Z,67.91
2018-12-23T03:19:17.922Z,67.70
2018-12-23T03:21:52.989Z,68.12
2018-12-23T03:24:28.207Z,67.66
2018-12-23T03:27:04.185Z,67.57
2018-12-23T03:29:39.394Z,67.74
2018-12-23T03:32:14.545Z,67.10
2018-12-23T03:34:49.888Z,67.61
2018-12-23T03:37:24.997Z,66.85
2018-12-23T03:40:00.161Z,67.25
2018-12-23T03:42:35.378Z,67.31
2018-12-23T03:45:10.467Z,66.86
2018-12-23T03:47:45.752Z,66.96
2018-12-23T03:50:21.012Z,66.64
2018-12-23T03:52:56.124Z,66.44
2018-12-23T03:55:31.367Z,66.52
2018-12-23T03:58:06.503Z,66.01
2018-12-23T04:00:41.764Z,66.84
2018-12-23T04:03:16.967Z,66.32
2018-12-23T04:05:52.140Z,66.47
2018-12-23T04:08:27.078Z,66.52
2018-12-23T04:11:02.310Z,66.53
2018-12-23T04:13:37.618Z,66.69
2018-12-23T04:16:12.764Z,66.47
2018-12-23T04:18:48.233Z,66.65
2018-12-23T04:21:23.465Z,66.77
2018-12-23T04:23:58.632Z,66.51
2018-12-23T04:26:33.864Z,66.59
2018-12-23T04:29:10.186Z,66.59
2018-12-23T04:31:45.458Z,66.58
2018-12-23T04:34:20.654Z,66.49
2018-12-23T04:36:55.797Z,66.26
2018-12-23T04:39:31.013Z,66.24
2018-12-23T04:42:06.180Z,66.23
2018-12-23T04:44:41.236Z,66.33
2018-12-23T04:47:16.468Z,66.99
2018-12-23T04:49:51.610Z,66.99
2018-12-23T04:52:26.725Z,67.01
2018-12-23T04:55:01.734Z,67.10
2018-12-23T04:57:37.416Z,67.56
2018-12-23T05:00:12.415Z,67.19
2018-12-23T05:02:47.756Z,67.13
2018-12-23T05:05:22.916Z,66.63
2018-12-23T05:07:58.061Z,66.33
2018-12-23T05:10:33.274Z,66.45
2018-12-23T05:13:08.470Z,65.30
2018-12-23T05:15:43.657Z,65.12
2018-12-23T05:18:18.999Z,64.47
2018-12-23T05:20:54.238Z,65.19
2018-12-23T05:23:29.569Z,65.23
2018-12-23T05:26:04.913Z,64.86
2018-12-23T05:28:40.147Z,64.43
2018-12-23T05:31:15.109Z,64.74
2018-12-23T05:33:50.305Z,64.75
2018-12-23T05:36:25.467Z,65.14
2018-12-23T05:39:00.730Z,64.90
2018-12-23T05:41:35.869Z,65.20
2018-12-23T05:44:11.014Z,65.59
2018-12-23T05:46:46.174Z,65.38
2018-12-23T05:49:21.354Z,65.60
2018-12-23T05:51:56.279Z,65.16
2018-12-23T05:54:31.421Z,65.70
2018-12-23T05:57:07.673Z,65.53
2018-12-23T05:59:42.921Z,66.02
2018-12-23T06:02:17.951Z,66.03
2018-12-23T06:04:52.965Z,65.39
2018-12-23T06:07:28.721Z,65.81
2018-12-23T06:10:04.691Z,66.29
2018-12-23T06:12:39.697Z,66.17
2018-12-23T06:15:14.816Z,65.88
2018-12-23T06:17:49.964Z,65.94
2018-12-23T06:20:25.193Z,66.17
2018-12-23T06:23:00.280Z,65.71
2018-12-23T06:25:35.505Z,66.02
2018-12-23T06:28:12.232Z,65.99
2018-12-23T06:30:47.361Z,66.08
2018-12-23T06:33:22.521Z,66.15
2018-12-23T06:35:57.612Z,66.11
2018-12-23T06:38:34.553Z,66.15
2018-12-23T06:41:10.091Z,66.77
2018-12-23T06:43:45.006Z,66.57
2018-12-23T06:46:20.288Z,66.77
2018-12-23T06:48:55.510Z,66.93
2018-12-23T06:51:30.701Z,66.93
2018-12-23T06:54:05.814Z,66.98
2018-12-23T06:56:41.016Z,66.95
2018-12-23T06:59:16.207Z,67.25
2018-12-23T07:01:51.551Z,67.29
2018-12-23T07:04:26.816Z,67.39
2018-12-23T07:07:02.045Z,67.84
2018-12-23T07:09:37.363Z,67.53
2018-12-23T07:12:12.413Z,67.94
2018-12-23T07:14:47.665Z,67.70
2018-12-23T07:17:22.801Z,68.54
2018-12-23T07:19:58.517Z,68.82
2018-12-23T07:22:33.737Z,69.29
2018-12-23T07:25:09.037Z,68.93
2018-12-23T07:27:44.569Z,68.92
2018-12-23T07:30:19.714Z,68.98
2018-12-23T07:32:54.792Z,68.55
2018-12-23T07:35:30.003Z,68.32
2018-12-23T07:38:05.225Z,68.52
2018-12-23T07:40:40.541Z,68.18
2018-12-23T07:43:15.782Z,67.66
2018-12-23T07:45:50.893Z,67.77
2018-12-23T07:48:26.083Z,67.42
2018-12-23T07:51:01.481Z,67.55
2018-12-23T07:53:37.373Z,67.62
2018-12-23T07:56:12.534Z,67.86
2018-12-23T07:58:47.611Z,68.08
2018-12-23T08:01:22.970Z,67.49
2018-12-23T08:03:58.037Z,67.60
2018-12-23T08:06:33.280Z,67.75
2018-12-23T08:09:08.357Z,67.73
2018-12-23T08:11:43.321Z,67.58
2018-12-23T08:14:18.557Z,67.17
2018-12-23T08:16:53.872Z,67.62
2018-12-23T08:19:29.037Z,67.42
2018-12-23T08:22:04.290Z,67.41
2018-12-23T08:24:39.393Z,67.48
2018-12-23T08:27:14.652Z,67.00
2018-12-23T08:29:49.878Z,67.46
2018-12-23T08:32:25.238Z,67.82
2018-12-23T08:35:00.469Z,67.05
2018-12-23T08:37:35.749Z,67.50
2018-12-23T08:40:10.841Z,67.40
2018-12-23T08:42:45.958Z,67.39
2018-12-23T08:45:21.003Z,67.49
2018-12-23T08:47:56.356Z,67.65
2018-12-23T08:50:31.579Z,67.57
2018-12-23T08:53:06.859Z,67.57
2018-12-23T08:55:42.088Z,67.50
2018-12-23T08:58:17.321Z,67.60
2018-12-23T09:00:52.462Z,67.74
2018-12-23T09:03:27.689Z,67.92
2018-12-23T09:06:03.307Z,67.94
2018-12-23T09:08:38.588Z,67.80
2018-12-23T09:11:13.761Z,67.57
2018-12-23T09:13:48.895Z,67.86
2018-12-23T09:16:24.125Z,67.24
2018-12-23T09:18:59.148Z,67.23
2018-12-23T09:21:34.266Z,67.24
2018-12-23T09:24:09.437Z,67.25
2018-12-23T09:26:44.689Z,67.78
2018-12-23T09:29:19.687Z,67.06
2018-12-23T09:31:54.831Z,66.82
2018-12-23T09:34:30.079Z,66.85
2018-12-23T09:37:05.124Z,66.80
2018-12-23T09:39:40.491Z,66.05
2018-12-23T09:42:15.529Z,65.86
2018-12-23T09:44:50.597Z,65.95
2018-12-23T09:47:25.739Z,65.54
2018-12-23T09:50:01.069Z,65.47
2018-12-23T09:52:36.276Z,65.06
2018-12-23T09:55:11.368Z,65.27
2018-12-23T09:57:46.527Z,64.59
2018-12-23T10:00:21.769Z,64.51
2018-12-23T10:02:56.994Z,64.33
2018-12-23T10:05:32.106Z,64.30
2018-12-23T10:08:10.254Z,63.44
2018-12-23T10:10:44.339Z,63.68
2018-12-23T10:13:19.545Z,63.24
2018-12-23T10:15:54.664Z,63.32
2018-12-23T10:18:29.861Z,63.33
2018-12-23T10:21:05.242Z,62.44
2018-12-23T10:23:40.463Z,62.26
2018-12-23T10:26:16.493Z,62.59
2018-12-23T10:28:51.711Z,61.97
2018-12-23T10:31:26.808Z,61.97
2018-12-23T10:34:02.041Z,62.03
2018-12-23T10:36:37.386Z,62.31
2018-12-23T10:39:12.595Z,61.75
2018-12-23T10:41:47.899Z,61.58
2018-12-23T10:44:22.921Z,61.02
2018-12-23T10:46:58.275Z,61.21
2018-12-23T10:49:33.470Z,61.11
2018-12-23T10:52:08.701Z,60.59
2018-12-23T10:54:43.903Z,60.97
2018-12-23T10:57:19.136Z,60.35
2018-12-23T10:59:54.334Z,60.53
2018-12-23T11:02:29.542Z,60.48
2018-12-23T11:05:04.894Z,60.31
2018-12-23T11:07:40.133Z,60.85
2018-12-23T11:10:15.403Z,60.04
2018-12-23T11:12:50.547Z,60.03
2018-12-23T11:15:25.779Z,60.82
2018-12-23T11:18:01.053Z,60.77
2018-12-23T11:20:36.182Z,59.80
2018-12-23T11:23:11.403Z,59.47
2018-12-23T11:25:46.479Z,59.52
2018-12-23T11:28:21.616Z,59.40
2018-12-23T11:30:56.874Z,58.53
2018-12-23T11:33:33.566Z,59.30
2018-12-23T11:36:08.852Z,58.43
2018-12-23T11:38:44.012Z,59.06
2018-12-23T11:41:19.380Z,58.89
2018-12-23T11:43:54.507Z,58.42
2018-12-23T11:46:29.825Z,58.66
2018-12-23T11:49:05.038Z,58.62
2018-12-23T11:51:40.276Z,58.30
2018-12-23T11:54:15.504Z,58.59
2018-12-23T11:56:50.635Z,58.00
2018-12-23T11:59:25.787Z,58.10
2018-12-23T12:02:00.902Z,58.68
2018-12-23T12:04:36.002Z,58.22
2018-12-23T12:07:11.179Z,58.46
2018-12-23T12:09:46.179Z,58.11
2018-12-23T12:12:21.288Z,58.32
2018-12-23T12:14:56.340Z,57.69
2018-12-23T12:17:31.531Z,58.49
2018-12-23T12:20:07.076Z,58.42
2018-12-23T12:22:42.261Z,58.06
2018-12-23T12:25:17.504Z,58.38
2018-12-23T12:27:52.666Z,58.60
2018-12-23T12:30:27.792Z,58.00
2018-12-23T12:33:02.865Z,58.39
2018-12-23T12:38:53.262Z,58.32
2018-12-23T12:41:43.902Z,58.56
2018-12-23T12:44:34.939Z,58.46
2018-12-23T12:47:25.681Z,58.86
2018-12-23T12:50:16.274Z,58.50
2018-12-23T12:53:06.984Z,58.68
2018-12-23T12:55:57.611Z,58.82
2018-12-23T12:58:48.537Z,58.76
2018-12-23T13:01:38.900Z,59.04
2018-12-23T13:04:29.703Z,59.19
2018-12-23T13:07:20.223Z,59.04
2018-12-23T13:10:11.107Z,58.88
2018-12-23T13:13:01.731Z,58.34
2018-12-23T13:15:52.859Z,58.13
2018-12-23T13:18:43.689Z,57.67
2018-12-23T13:21:34.244Z,57.17
2018-12-23T13:24:25.005Z,56.76
2018-12-23T13:27:15.464Z,56.41
2018-12-23T13:30:07.835Z,56.17
2018-12-23T13:32:58.497Z,56.47
2018-12-23T13:35:49.167Z,56.39
2018-12-23T13:38:39.678Z,56.49
2018-12-23T13:41:55.528Z,56.78
2018-12-23T13:45:35.492Z,56.71
2018-12-23T13:49:21.512Z,57.11
2018-12-23T13:52:32.381Z,57.85
2018-12-23T13:55:53.367Z,57.92
2018-12-23T13:59:36.892Z,58.02
2018-12-23T14:02:55.042Z,58.47
2018-12-23T14:06:27.733Z,60.05
2018-12-23T14:09:53.816Z,60.99
2018-12-23T14:12:44.186Z,62.08
2018-12-23T14:15:34.744Z,62.90
2018-12-23T14:18:25.721Z,62.97
2018-12-23T14:21:16.398Z,64.09
2018-12-23T14:24:06.999Z,64.46
2018-12-23T14:26:57.441Z,64.97
2018-12-23T14:29:48.192Z,65.40
2018-12-23T14:32:39.032Z,65.70
2018-12-23T14:35:32.129Z,66.06
2018-12-23T14:38:21.831Z,65.81
2018-12-23T14:41:12.499Z,66.21
2018-12-23T14:44:02.845Z,66.62
2018-12-23T14:46:53.838Z,66.85
2018-12-23T14:49:44.453Z,67.33
2018-12-23T14:52:35.383Z,67.89
2018-12-23T14:55:25.866Z,68.12
2018-12-23T14:58:16.125Z,68.07
2018-12-23T15:01:06.545Z,68.07
2018-12-23T15:03:57.237Z,68.15
2018-12-23T15:06:48.238Z,68.25
2018-12-23T15:09:39.149Z,68.40
2018-12-23T15:12:30.023Z,68.15
2018-12-23T15:15:20.526Z,68.53
2018-12-23T15:18:11.135Z,69.15
2018-12-23T15:21:01.460Z,69.54
2018-12-23T15:23:51.824Z,69.68
2018-12-23T15:26:42.336Z,69.51
2018-12-23T15:29:32.900Z,69.56
2018-12-23T15:32:23.850Z,69.82
2018-12-23T15:35:14.414Z,69.63
2018-12-23T15:38:05.292Z,69.83
2018-12-23T15:40:56.367Z,70.02
2018-12-23T15:43:47.319Z,70.06
2018-12-23T15:46:41.047Z,69.73
2018-12-23T15:49:31.815Z,69.75
2018-12-23T15:52:22.434Z,69.63
2018-12-23T15:55:13.380Z,69.47
2018-12-23T15:58:03.960Z,69.29
2018-12-23T16:00:54.731Z,68.81
2018-12-23T16:03:45.483Z,68.78
2018-12-23T16:06:36.168Z,69.17
2018-12-23T16:09:27.158Z,68.75
2018-12-23T16:12:17.976Z,68.86
2018-12-23T16:15:08.336Z,68.91
2018-12-23T16:17:58.942Z,68.92
2018-12-23T16:20:49.617Z,69.05
2018-12-23T16:23:40.211Z,68.54
2018-12-23T16:26:31.061Z,68.77
2018-12-23T16:29:21.571Z,68.89
2018-12-23T16:32:12.606Z,68.80
2018-12-23T16:35:03.521Z,68.81
2018-12-23T16:37:54.517Z,69.44
2018-12-23T16:40:45.297Z,69.13
2018-12-23T16:43:35.837Z,69.73
2018-12-23T16:46:26.519Z,69.42
2018-12-23T16:49:16.917Z,69.63
2018-12-23T16:52:07.843Z,70.05
2018-12-23T16:54:58.190Z,70.41
2018-12-23T16:57:49.096Z,70.60
2018-12-23T17:00:39.503Z,70.52
2018-12-23T17:03:29.907Z,70.26
2018-12-23T17:06:20.288Z,70.61
2018-12-23T17:09:10.657Z,70.78
2018-12-23T17:12:01.416Z,70.96
2018-12-23T17:14:52.524Z,71.16
2018-12-23T17:17:44.016Z,71.33
2018-12-23T17:20:34.268Z,71.32
2018-12-23T17:23:25.288Z,71.36
2018-12-23T17:26:15.903Z,71.48
2018-12-23T17:29:05.848Z,71.60
2018-12-23T17:31:56.062Z,71.69
2018-12-23T17:34:46.745Z,71.72
2018-12-23T17:37:37.456Z,71.92
2018-12-23T17:40:28.387Z,72.06
2018-12-23T17:43:19.262Z,71.99
2018-12-23T17:46:10.415Z,72.01
2018-12-23T17:49:01.756Z,72.15
2018-12-23T17:51:52.610Z,72.36
2018-12-23T17:54:43.391Z,72.29
2018-12-23T17:57:33.577Z,72.28
2018-12-23T18:00:24.093Z,72.08
2018-12-23T18:03:14.720Z,71.89
2018-12-23T18:06:05.669Z,71.90
2018-12-23T18:08:55.998Z,72.07
2018-12-23T18:11:46.963Z,71.98
2018-12-23T18:14:37.832Z,71.49
2018-12-23T18:17:28.358Z,71.57
2018-12-23T18:20:19.586Z,71.44
2018-12-23T18:23:10.377Z,70.96
2018-12-23T18:26:01.476Z,70.48
2018-12-23T18:28:52.578Z,70.53
2018-12-23T18:31:42.831Z,70.29
2018-12-23T18:34:33.463Z,69.97
2018-12-23T18:37:23.834Z,69.75
2018-12-23T18:40:14.390Z,69.59
2018-12-23T18:43:04.963Z,69.42
2018-12-23T18:45:55.452Z,69.78
2018-12-23T18:48:46.039Z,69.68
2018-12-23T18:51:36.681Z,69.64
2018-12-23T18:54:27.503Z,69.49
2018-12-23T18:57:19.424Z,69.67
2018-12-23T19:00:10.929Z,69.55
2018-12-23T19:03:02.072Z,69.62
2018-12-23T19:05:52.986Z,69.38
2018-12-23T19:09:21.445Z,69.39
2018-12-23T19:12:39.751Z,69.38
2018-12-23T19:16:06.513Z,69.91
2018-12-23T19:19:59.987Z,70.07
2018-12-23T19:23:30.661Z,69.45
2018-12-23T19:26:58.197Z,68.94
2018-12-23T19:30:12.667Z,68.76
2018-12-23T19:33:47.011Z,68.91
2018-12-23T19:37:13.777Z,68.24
2018-12-23T19:41:06.166Z,68.11
2018-12-23T19:44:33.377Z,68.15
2018-12-23T19:48:05.717Z,68.18
2018-12-23T19:51:31.836Z,68.00
2018-12-23T19:54:52.877Z,67.92
2018-12-23T19:58:19.679Z,68.36
2018-12-23T20:01:43.001Z,68.16
2018-12-23T20:05:10.779Z,68.36
2018-12-23T20:08:48.057Z,68.73
2018-12-23T20:12:07.560Z,69.03
2018-12-23T20:15:39.017Z,69.04
2018-12-23T20:19:26.121Z,69.05
2018-12-23T20:22:32.243Z,69.04
2018-12-23T20:25:45.497Z,69.20
2018-12-23T20:29:31.913Z,69.24
2018-12-23T20:32:53.426Z,68.91
2018-12-23T20:36:32.065Z,68.92
2018-12-23T20:40:24.679Z,68.72
2018-12-23T20:43:59.290Z,68.38
2018-12-23T20:47:16.813Z,68.17
2018-12-23T20:50:50.046Z,68.24
2018-12-23T20:54:26.896Z,68.12
2018-12-23T20:58:04.829Z,68.23
2018-12-23T21:02:06.788Z,68.75
2018-12-23T21:06:08.787Z,68.29
2018-12-23T21:09:46.868Z,68.16
2018-12-23T21:13:05.111Z,68.81
2018-12-23T21:16:25.449Z,68.90
2018-12-23T21:20:01.777Z,69.28
2018-12-23T21:23:28.716Z,68.70
2018-12-23T21:27:05.089Z,68.74
2018-12-23T21:30:32.524Z,68.10
2018-12-23T21:34:05.643Z,68.15
2018-12-23T21:37:23.512Z,67.78
2018-12-23T21:41:09.369Z,67.79
2018-12-23T21:44:36.055Z,67.26
2018-12-23T21:48:00.119Z,67.38
2018-12-23T21:51:40.624Z,67.40
2018-12-23T21:55:02.010Z,67.19
2018-12-23T21:58:25.487Z,67.15
2018-12-23T22:02:04.926Z,67.20
2018-12-23T22:05:14.657Z,66.68
2018-12-23T22:09:04.695Z,66.46
2018-12-23T22:12:35.456Z,66.86
2018-12-23T22:15:26.275Z,66.66
2018-12-23T22:18:17.297Z,66.61
2018-12-23T22:21:08.566Z,66.68
2018-12-23T22:23:59.252Z,66.83
2018-12-23T22:26:50.285Z,65.90
2018-12-23T22:29:41.042Z,65.71
2018-12-23T22:32:31.741Z,65.76
2018-12-23T22:35:22.082Z,66.01
2018-12-23T22:38:12.833Z,66.19
2018-12-23T22:41:09.879Z,66.29
2018-12-23T22:44:00.096Z,66.28
2018-12-23T22:46:50.477Z,66.12
2018-12-23T22:49:40.760Z,66.15
2018-12-23T22:52:31.430Z,65.83
2018-12-23T22:55:22.341Z,65.85
2018-12-23T22:58:12.991Z,65.84
2018-12-23T23:01:03.666Z,65.61
2018-12-23T23:03:54.195Z,65.45
2018-12-23T23:06:44.499Z,65.33
2018-12-23T23:09:35.239Z,65.42
2018-12-23T23:12:26.204Z,65.21
2018-12-23T23:15:16.908Z,65.24
2018-12-23T23:18:07.320Z,65.26
2018-12-23T23:20:58.296Z,65.38
2018-12-23T23:23:49.178Z,65.11
2018-12-23T23:26:39.242Z,65.26
2018-12-23T23:29:29.944Z,65.27
2018-12-23T23:32:20.916Z,65.23
2018-12-23T23:35:11.774Z,65.13
2018-12-23T23:38:02.379Z,65.17
2018-12-23T23:40:53.265Z,64.93
2018-12-23T23:43:43.693Z,64.87
2018-12-23T23:46:34.702Z,65.05
2018-12-23T23:49:25.361Z,65.10
2018-12-23T23:52:15.932Z,65.07
2018-12-23T23:55:07.017Z,64.88
2018-12-23T23:57:57.124Z,64.91
